Time;durP1;ratioP1;P1;durP2;ratioP2;P2;SDS_P1;SDS_P2;PMS_P1;PMS_P2;Temp;Humidity;BMP_temperature;BMP_pressure;BME280_temperature;BME280_humidity;BME280_pressure;Samples;Min_cycle;Max_cycle;Signal;HPM_P1;HPM_P2
2021/06/25 00:02:12;;;;;;;1999.90;999.90;;;;;;;23.09;81.64;95759.75;5052345;28;20198;-68
2021/06/25 00:04:39;;;;;;;1999.90;999.90;;;;;;;23.07;81.97;95748.00;5052223;28;20661;-68
2021/06/25 00:07:08;;;;;;;1999.90;999.90;;;;;;;23.10;81.93;95740.09;5051859;28;20228;-68
2021/06/25 00:09:35;;;;;;;1999.90;999.90;;;;;;;23.12;82.25;95751.06;5051802;28;20689;-71
2021/06/25 00:12:02;;;;;;;1999.90;999.90;;;;;;;23.04;82.81;95765.41;5051967;28;20197;-68
2021/06/25 00:14:29;;;;;;;1999.90;999.90;;;;;;;22.93;84.20;95774.38;5052162;28;20197;-69
2021/06/25 00:16:56;;;;;;;1999.90;999.90;;;;;;;22.95;83.86;95761.53;5051264;28;20254;-67
2021/06/25 00:19:23;;;;;;;1999.90;999.90;;;;;;;22.97;83.84;95761.91;5051115;28;20201;-68
2021/06/25 00:21:50;;;;;;;1999.90;999.90;;;;;;;22.99;83.70;95751.72;5051835;28;20728;-68
2021/06/25 00:24:19;;;;;;;1999.90;999.90;;;;;;;22.97;83.27;95754.72;5051618;28;20204;-69
2021/06/25 00:26:46;;;;;;;1999.90;999.90;;;;;;;23.00;81.37;95763.84;5051651;28;20228;-69
2021/06/25 00:29:13;;;;;;;1999.90;999.90;;;;;;;22.92;80.65;95762.25;5050608;28;20251;-70
2021/06/25 00:31:40;;;;;;;1999.90;999.90;;;;;;;22.84;80.16;95760.69;5051764;28;20949;-70
2021/06/25 00:34:07;;;;;;;1999.90;999.90;;;;;;;22.78;79.41;95765.53;5051816;28;20617;-69
2021/06/25 00:36:34;;;;;;;1999.90;999.90;;;;;;;22.72;80.24;95769.66;5051576;28;20737;-69
2021/06/25 00:39:01;;;;;;;1999.90;999.90;;;;;;;22.60;80.07;95772.53;5051741;28;20205;-69
2021/06/25 00:41:29;;;;;;;1999.90;999.90;;;;;;;22.55;80.19;95764.91;5051348;28;20264;-68
2021/06/25 00:43:56;;;;;;;1999.90;999.90;;;;;;;22.52;80.57;95755.78;5051075;28;20200;-68
2021/06/25 00:46:24;;;;;;;1999.90;999.90;;;;;;;22.54;79.89;95766.81;5048075;28;20208;-68
2021/06/25 00:48:51;;;;;;;1999.90;999.90;;;;;;;22.42;80.37;95758.31;5031219;28;20194;-67
2021/06/25 00:51:18;;;;;;;1999.90;999.90;;;;;;;22.36;80.57;95762.44;5031346;28;20190;-68
2021/06/25 00:53:45;;;;;;;1999.90;999.90;;;;;;;22.41;80.98;95759.47;5031353;28;20204;-68
2021/06/25 00:56:13;;;;;;;1999.90;999.90;;;;;;;22.36;82.03;95757.16;5031193;28;20652;-67
2021/06/25 00:58:43;;;;;;;1999.90;999.90;;;;;;;22.26;83.26;95754.03;5031009;28;20694;-68
2021/06/25 01:01:10;;;;;;;1999.90;999.90;;;;;;;22.21;84.71;95753.56;5040741;28;20220;-67
2021/06/25 01:03:37;;;;;;;1999.90;999.90;;;;;;;22.28;83.70;95762.34;5050999;28;20209;-67
2021/06/25 01:06:05;;;;;;;1999.90;999.90;;;;;;;22.14;84.17;95751.59;5050674;28;20724;-68
2021/06/25 01:08:32;;;;;;;1999.90;999.90;;;;;;;22.14;85.14;95756.91;5050537;28;20205;-68
2021/06/25 01:10:59;;;;;;;1999.90;999.90;;;;;;;22.10;85.21;95766.69;5050798;28;20209;-68
2021/06/25 01:13:26;;;;;;;1999.90;999.90;;;;;;;21.98;85.40;95758.19;5051009;28;20209;-68
2021/06/25 01:15:55;;;;;;;1999.90;999.90;;;;;;;22.06;85.59;95760.59;5051047;28;20658;-69
2021/06/25 01:18:22;;;;;;;1999.90;999.90;;;;;;;22.11;85.17;95762.16;5050945;28;20959;-68
2021/06/25 01:20:49;;;;;;;1999.90;999.90;;;;;;;21.97;85.78;95762.00;5050571;28;20208;-67
2021/06/25 01:23:18;;;;;;;1999.90;999.90;;;;;;;21.77;86.33;95748.06;5050856;28;20202;-67
2021/06/25 01:25:45;;;;;;;1999.90;999.90;;;;;;;21.73;86.39;95757.84;5050343;28;20274;-67
2021/06/25 01:28:12;;;;;;;1999.90;999.90;;;;;;;21.63;88.21;95759.22;5050502;28;20189;-67
2021/06/25 01:30:42;;;;;;;1999.90;999.90;;;;;;;21.55;90.16;95748.91;5044464;28;20247;-68
2021/06/25 01:33:11;;;;;;;1999.90;999.90;;;;;;;21.60;89.89;95770.53;5050243;28;20197;-68
2021/06/25 01:35:38;;;;;;;1999.90;999.90;;;;;;;21.52;91.24;95762.88;5050402;28;20194;-67
2021/06/25 01:38:06;;;;;;;1999.90;999.90;;;;;;;21.53;91.46;95764.38;5050605;28;20235;-67
2021/06/25 01:40:37;;;;;;;1999.90;999.90;;;;;;;21.50;92.01;95744.69;5049228;28;20786;-67
2021/06/25 01:43:06;;;;;;;1999.90;999.90;;;;;;;21.45;92.18;95759.00;5050614;28;20192;-67
2021/06/25 01:45:35;;;;;;;1999.90;999.90;;;;;;;21.39;92.86;95755.13;5050333;28;20251;-68
2021/06/25 01:48:03;;;;;;;1999.90;999.90;;;;;;;21.36;93.16;95752.44;5050165;28;20673;-67
2021/06/25 01:50:36;;;;;;;1999.90;999.90;;;;;;;21.44;92.92;95746.88;5048382;28;20194;-68
2021/06/25 01:53:04;;;;;;;1999.90;999.90;;;;;;;21.42;93.80;95754.41;5030419;28;20186;-68
2021/06/25 01:55:40;;;;;;;1999.90;999.90;;;;;;;21.41;93.92;95737.03;5028575;28;20389;-68
2021/06/25 01:58:08;;;;;;;1999.90;999.90;;;;;;;21.41;94.16;95742.31;5046839;28;20216;-69
2021/06/25 02:00:36;;;;;;;1999.90;999.90;;;;;;;21.26;95.47;95737.94;5048384;28;20201;-68
2021/06/25 02:03:03;;;;;;;1999.90;999.90;;;;;;;21.26;96.53;95740.59;5042282;28;20735;-67
2021/06/25 02:05:31;;;;;;;1999.90;999.90;;;;;;;21.18;97.80;95738.94;5037856;28;20232;-67
2021/06/25 02:07:59;;;;;;;1999.90;999.90;;;;;;;21.18;98.53;95732.88;5048954;28;20225;-68
2021/06/25 02:10:26;;;;;;;1999.90;999.90;;;;;;;21.17;98.59;95742.69;5048276;28;20752;-67
2021/06/25 02:12:55;;;;;;;1999.90;999.90;;;;;;;21.15;99.00;95744.94;5049089;28;20701;-68
2021/06/25 02:15:23;;;;;;;1999.90;999.90;;;;;;;21.14;99.05;95743.41;5049590;28;20204;-68
2021/06/25 02:17:50;;;;;;;1999.90;999.90;;;;;;;21.14;99.25;95750.56;5049544;28;20204;-68
2021/06/25 02:20:17;;;;;;;1999.90;999.90;;;;;;;21.03;99.51;95753.00;5049631;28;20205;-68
2021/06/25 02:22:44;;;;;;;1999.90;999.90;;;;;;;21.06;99.38;95747.03;5049096;28;20224;-68
2021/06/25 02:25:13;;;;;;;1999.90;999.90;;;;;;;21.06;99.40;95744.41;5049442;28;20255;-68
2021/06/25 02:27:41;;;;;;;1999.90;999.90;;;;;;;20.98;99.90;95740.09;5049030;28;20366;-68
2021/06/25 02:30:15;;;;;;;1999.90;999.90;;;;;;;21.02;99.65;95739.03;5048965;28;20201;-69
2021/06/25 02:32:43;;;;;;;1999.90;999.90;;;;;;;21.01;98.24;95736.75;5048952;28;20188;-69
2021/06/25 02:35:11;;;;;;;1999.90;999.90;;;;;;;20.97;98.72;95738.59;5036993;28;20238;-70
2021/06/25 02:37:38;;;;;;;1999.90;999.90;;;;;;;20.89;99.12;95736.94;5029007;28;20208;-68
2021/06/25 02:40:07;;;;;;;1999.90;999.90;;;;;;;20.88;98.96;95741.44;5028755;28;20253;-69
2021/06/25 02:42:35;;;;;;;1999.90;999.90;;;;;;;20.89;98.74;95736.94;5029078;28;20205;-69
2021/06/25 02:45:03;;;;;;;1999.90;999.90;;;;;;;20.84;99.07;95745.16;5029320;28;20206;-69
2021/06/25 02:47:32;;;;;;;1999.90;999.90;;;;;;;20.81;99.24;95744.00;5040403;28;20213;-70
2021/06/25 02:49:59;;;;;;;1999.90;999.90;;;;;;;20.75;98.98;95737.47;5048487;28;20201;-70
2021/06/25 02:52:26;;;;;;;1999.90;999.90;;;;;;;20.71;99.13;95736.66;5041641;28;20723;-69
2021/06/25 02:54:53;;;;;;;1999.90;999.90;;;;;;;20.72;99.48;95746.09;5029094;28;20234;-70
2021/06/25 02:57:20;;;;;;;1999.90;999.90;;;;;;;20.68;99.50;95747.91;5028730;28;20197;-70
2021/06/25 02:59:47;;;;;;;1999.90;999.90;;;;;;;20.66;100.00;95749.38;5047022;28;20605;-69
2021/06/25 03:02:14;;;;;;;1999.90;999.90;;;;;;;20.63;100.00;95759.53;5046214;28;20227;-70
2021/06/25 03:04:43;;;;;;;1999.90;999.90;;;;;;;20.62;100.00;95755.34;5048951;28;20200;-70
2021/06/25 03:07:10;;;;;;;1999.90;999.90;;;;;;;20.63;100.00;95750.81;5048635;28;20220;-69
2021/06/25 03:09:37;;;;;;;1999.90;999.90;;;;;;;20.49;100.00;95753.22;5048820;28;20197;-67
2021/06/25 03:12:05;;;;;;;1999.90;999.90;;;;;;;20.56;100.00;95750.72;5048580;28;20228;-69
2021/06/25 03:14:32;;;;;;;1999.90;999.90;;;;;;;20.61;96.67;95751.19;5048467;28;20197;-68
2021/06/25 03:16:59;;;;;;;1999.90;999.90;;;;;;;20.72;93.05;95763.84;5033310;28;20197;-67
2021/06/25 03:19:27;;;;;;;1999.90;999.90;;;;;;;20.78;91.05;95755.25;5028608;28;20206;-68
2021/06/25 03:21:55;;;;;;;1999.90;999.90;;;;;;;20.82;90.47;95756.06;5028491;28;20244;-70
2021/06/25 03:24:22;;;;;;;1999.90;999.90;;;;;;;20.76;90.80;95748.81;5032741;28;20745;-70
2021/06/25 03:26:49;;;;;;;1999.90;999.90;;;;;;;20.88;88.92;95753.91;5035609;28;20796;-66
2021/06/25 03:29:16;;;;;;;1999.90;999.90;;;;;;;20.98;87.61;95755.94;5028908;28;20233;-69
2021/06/25 03:31:43;;;;;;;1999.90;999.90;;;;;;;21.07;86.98;95759.13;5030534;28;20689;-66
2021/06/25 03:34:10;;;;;;;1999.90;999.90;;;;;;;21.12;87.08;95766.75;5028288;28;20281;-72
2021/06/25 03:36:37;;;;;;;1999.90;999.90;;;;;;;21.22;86.64;95763.53;5028478;28;20202;-70
2021/06/25 03:39:07;;;;;;;1999.90;999.90;;;;;;;21.08;87.74;95765.16;5039258;28;20205;-69
2021/06/25 03:41:34;;;;;;;1999.90;999.90;;;;;;;21.25;87.92;95764.72;5045720;28;20229;-71
2021/06/25 03:44:02;;;;;;;1999.90;999.90;;;;;;;21.40;86.34;95772.53;5038927;28;20708;-71
2021/06/25 03:46:29;;;;;;;1999.90;999.90;;;;;;;21.35;87.29;95780.75;5043264;28;20644;-71
2021/06/25 03:48:57;;;;;;;1999.90;999.90;;;;;;;21.32;89.57;95781.44;5048023;28;20209;-70
2021/06/25 03:51:24;;;;;;;1999.90;999.90;;;;;;;21.50;91.45;95780.97;5046993;28;20205;-71
2021/06/25 03:53:51;;;;;;;1999.90;999.90;;;;;;;21.53;88.79;95777.59;5047158;28;20817;-66
2021/06/25 03:56:19;;;;;;;1999.90;999.90;;;;;;;21.59;88.82;95778.81;5047418;28;20640;-67
2021/06/25 03:58:48;;;;;;;1999.90;999.90;;;;;;;21.53;91.75;95782.88;5045072;28;20681;-67
2021/06/25 04:01:16;;;;;;;1999.90;999.90;;;;;;;21.58;93.81;95778.06;5045408;28;20259;-66
2021/06/25 04:03:43;;;;;;;1999.90;999.90;;;;;;;21.47;95.16;95775.25;5048300;28;20197;-66
2021/06/25 04:06:10;;;;;;;1999.90;999.90;;;;;;;21.48;96.30;95774.13;5050000;28;20205;-67
2021/06/25 04:08:37;;;;;;;1999.90;999.90;;;;;;;21.52;95.58;95762.88;5050079;28;20236;-67
2021/06/25 04:11:06;;;;;;;1999.90;999.90;;;;;;;21.53;93.62;95769.66;5050166;28;20204;-67
2021/06/25 04:13:36;;;;;;;1999.90;999.90;;;;;;;21.66;90.50;95771.75;5051705;28;20204;-67
2021/06/25 04:16:04;;;;;;;1999.90;999.90;;;;;;;21.68;89.48;95772.16;5051933;28;20185;-67
2021/06/25 04:18:31;;;;;;;1999.90;999.90;;;;;;;21.75;86.77;95774.13;5052003;28;20266;-67
2021/06/25 04:20:59;;;;;;;1999.90;999.90;;;;;;;21.92;85.98;95777.00;5044874;28;20205;-67
2021/06/25 04:23:27;;;;;;;1999.90;999.90;;;;;;;22.03;84.96;95771.88;5052060;28;20201;-67
2021/06/25 04:25:54;;;;;;;1999.90;999.90;;;;;;;22.16;84.49;95775.84;5051481;28;20201;-67
2021/06/25 04:28:22;;;;;;;1999.90;999.90;;;;;;;22.35;84.07;95777.56;5051794;28;20237;-67
2021/06/25 04:30:51;;;;;;;1999.90;999.90;;;;;;;22.67;84.35;95772.59;5051554;28;20197;-65
2021/06/25 04:33:18;;;;;;;1999.90;999.90;;;;;;;23.04;84.17;95775.25;5043594;28;20292;-67
2021/06/25 04:35:49;;;;;;;1999.90;999.90;;;;;;;23.36;82.13;95770.22;5032501;28;20198;-69
2021/06/25 04:38:16;;;;;;;1999.90;999.90;;;;;;;23.71;78.48;95767.78;5051444;28;20205;-66
2021/06/25 04:40:44;;;;;;;1999.90;999.90;;;;;;;23.94;77.06;95773.63;5051261;28;20252;-66
2021/06/25 04:43:13;;;;;;;1999.90;999.90;;;;;;;24.35;74.87;95770.78;5051586;28;20203;-66
2021/06/25 04:45:41;;;;;;;1999.90;999.90;;;;;;;24.54;74.99;95770.47;5034474;28;20283;-64
2021/06/25 04:48:11;;;;;;;1999.90;999.90;;;;;;;24.99;69.34;95768.28;5031523;28;20614;-66
2021/06/25 04:50:39;;;;;;;1999.90;999.90;;;;;;;24.91;69.24;95772.81;5041622;28;20205;-64
2021/06/25 04:53:06;;;;;;;1999.90;999.90;;;;;;;24.91;69.51;95769.41;5051598;28;20387;-64
2021/06/25 04:55:40;;;;;;;1999.90;999.90;;;;;;;24.92;70.17;95773.56;5051089;28;20197;-65
2021/06/25 04:58:09;;;;;;;1999.90;999.90;;;;;;;24.88;70.60;95778.91;5051390;28;20189;-65
2021/06/25 05:00:36;;;;;;;1999.90;999.90;;;;;;;24.94;72.17;95785.38;5051063;28;20220;-65
2021/06/25 05:03:04;;;;;;;1999.90;999.90;;;;;;;25.05;72.61;95780.06;5050837;28;20617;-64
2021/06/25 05:05:32;;;;;;;1999.90;999.90;;;;;;;25.11;73.17;95783.84;5050892;28;20193;-64
2021/06/25 05:07:59;;;;;;;1999.90;999.90;;;;;;;25.33;72.19;95774.75;5050807;28;20217;-65
2021/06/25 05:10:27;;;;;;;1999.90;999.90;;;;;;;25.37;73.54;95782.72;5050989;28;20213;-65
2021/06/25 05:12:54;;;;;;;1999.90;999.90;;;;;;;25.40;73.25;95784.63;5050743;28;20201;-65
2021/06/25 05:15:21;;;;;;;1999.90;999.90;;;;;;;25.33;73.82;95779.31;5050347;28;20197;-65
2021/06/25 05:17:49;;;;;;;1999.90;999.90;;;;;;;25.40;75.45;95779.31;5050594;28;20197;-65
2021/06/25 05:20:16;;;;;;;1999.90;999.90;;;;;;;25.49;72.64;95777.78;5050510;28;20231;-65
2021/06/25 05:22:46;;;;;;;1999.90;999.90;;;;;;;25.59;72.18;95768.28;5050616;28;20255;-65
2021/06/25 05:25:13;;;;;;;1999.90;999.90;;;;;;;25.82;71.26;95770.50;5050740;28;20629;-65
2021/06/25 05:27:40;;;;;;;1999.90;999.90;;;;;;;25.92;73.35;95759.84;5050427;28;20287;-66
2021/06/25 05:30:10;;;;;;;1999.90;999.90;;;;;;;26.10;70.52;95767.78;5050715;28;20259;-66
2021/06/25 05:32:37;;;;;;;1999.90;999.90;;;;;;;26.11;72.71;95764.72;5050494;28;20284;-64
2021/06/25 05:35:05;;;;;;;1999.90;999.90;;;;;;;26.36;72.13;95764.63;5048535;28;20211;-65
2021/06/25 05:37:32;;;;;;;1999.90;999.90;;;;;;;26.50;70.30;95763.81;5047115;28;20209;-65
2021/06/25 05:40:00;;;;;;;1999.90;999.90;;;;;;;26.83;67.69;95763.22;5034125;28;20716;-65
2021/06/25 05:42:28;;;;;;;1999.90;999.90;;;;;;;26.94;64.81;95765.88;5033387;28;20599;-65
2021/06/25 05:44:55;;;;;;;1999.90;999.90;;;;;;;26.99;66.75;95768.13;5030374;28;20224;-65
2021/06/25 05:47:22;;;;;;;1999.90;999.90;;;;;;;27.05;66.28;95761.19;5030510;28;20225;-66
2021/06/25 05:49:49;;;;;;;1999.90;999.90;;;;;;;27.15;65.72;95767.63;5030355;28;20197;-66
2021/06/25 05:52:16;;;;;;;1999.90;999.90;;;;;;;27.32;64.22;95774.72;5030061;28;20200;-64
2021/06/25 05:54:43;;;;;;;1999.90;999.90;;;;;;;27.40;65.67;95787.59;5029903;28;20275;-64
2021/06/25 05:57:11;;;;;;;1999.90;999.90;;;;;;;27.60;66.72;95779.81;5029914;28;20194;-64
2021/06/25 05:59:38;;;;;;;1999.90;999.90;;;;;;;27.74;61.71;95778.94;5032937;28;20212;-64
2021/06/25 06:02:06;;;;;;;1999.90;999.90;;;;;;;27.67;62.57;95779.00;5049856;28;20197;-65
2021/06/25 06:04:33;;;;;;;1999.90;999.90;;;;;;;27.62;62.48;95782.84;5049997;28;21040;-65
2021/06/25 06:07:01;;;;;;;1999.90;999.90;;;;;;;27.69;61.95;95780.13;5049684;28;20193;-65
2021/06/25 06:09:28;;;;;;;1999.90;999.90;;;;;;;27.69;62.59;95776.69;5049599;28;20211;-65
2021/06/25 06:11:55;;;;;;;1999.90;999.90;;;;;;;27.79;62.78;95776.59;5049877;28;20205;-65
2021/06/25 06:14:24;;;;;;;1999.90;999.90;;;;;;;28.01;62.51;95771.75;5049931;28;20200;-63
2021/06/25 06:16:51;;;;;;;1999.90;999.90;;;;;;;28.14;63.57;95775.47;5049714;28;20200;-65
2021/06/25 06:19:19;;;;;;;1999.90;999.90;;;;;;;28.31;63.76;95784.44;5049348;28;20632;-65
2021/06/25 06:32:50;;;;;;;1999.90;999.90;;;;;;;28.74;58.75;95765.94;5049392;28;20222;-64
2021/06/25 06:35:17;;;;;;;1999.90;999.90;;;;;;;28.65;58.17;95765.66;5049609;28;20197;-64
2021/06/25 06:37:49;;;;;;;1999.90;999.90;;;;;;;28.79;58.53;95759.38;5034789;28;20201;-64
2021/06/25 06:40:19;;;;;;;1999.90;999.90;;;;;;;28.92;57.93;95763.75;5029023;28;20225;-64
2021/06/25 06:42:47;;;;;;;1999.90;999.90;;;;;;;28.92;57.75;95768.34;5029314;28;20209;-65
2021/06/25 06:45:17;;;;;;;1999.90;999.90;;;;;;;28.95;58.39;95748.81;5029494;28;20197;-64
2021/06/25 06:47:44;;;;;;;1999.90;999.90;;;;;;;29.09;59.36;95757.38;5029200;28;20227;-65
2021/06/25 06:50:13;;;;;;;1999.90;999.90;;;;;;;29.14;60.98;95758.09;5029148;28;20206;-65
2021/06/25 06:52:45;;;;;;;1999.90;999.90;;;;;;;29.34;61.23;95750.91;5029087;28;20202;-64
2021/06/25 06:55:15;;;;;;;1999.90;999.90;;;;;;;29.54;60.10;95751.69;5029051;28;20281;-65
2021/06/25 06:57:43;;;;;;;1999.90;999.90;;;;;;;29.64;60.80;95741.97;5029293;28;20187;-64
2021/06/25 07:00:11;;;;;;;1999.90;999.90;;;;;;;29.60;58.83;95755.41;5034001;28;20197;-64
2021/06/25 07:02:41;;;;;;;1999.90;999.90;;;;;;;29.83;58.00;95751.94;5048892;28;20738;-65
2021/06/25 07:05:09;;;;;;;1999.90;999.90;;;;;;;29.88;58.51;95751.47;5048855;28;20205;-64
2021/06/25 07:07:36;;;;;;;1999.90;999.90;;;;;;;30.08;58.40;95754.94;5048836;28;20220;-65
2021/06/25 07:10:06;;;;;;;1999.90;999.90;;;;;;;30.38;57.89;95755.88;5049145;28;20208;-64
2021/06/25 07:12:33;;;;;;;1999.90;999.90;;;;;;;30.49;56.15;95753.72;5048729;28;20197;-64
2021/06/25 07:15:00;;;;;;;1999.90;999.90;;;;;;;30.53;59.62;95754.44;5043491;28;20217;-63
2021/06/25 07:17:27;;;;;;;1999.90;999.90;;;;;;;30.48;58.28;95750.31;5029184;28;20311;-65
2021/06/25 07:19:56;;;;;;;1999.90;999.90;;;;;;;30.84;57.78;95749.50;5029154;28;20284;-65
2021/06/25 07:22:25;;;;;;;1999.90;999.90;;;;;;;30.59;58.16;95756.19;5029176;28;20295;-65
2021/06/25 07:24:52;;;;;;;1999.90;999.90;;;;;;;30.56;57.29;95746.28;5047502;28;20637;-65
2021/06/25 07:27:19;;;;;;;1999.90;999.90;;;;;;;30.85;57.86;95754.47;5048981;28;20201;-65
2021/06/25 07:29:46;;;;;;;1999.90;999.90;;;;;;;30.78;57.51;95746.59;5048879;28;20193;-65
2021/06/25 07:32:13;;;;;;;1999.90;999.90;;;;;;;30.95;56.75;95739.28;5048990;28;20193;-65
2021/06/25 07:34:40;;;;;;;1999.90;999.90;;;;;;;31.05;56.91;95741.75;5048985;28;20201;-65
2021/06/25 07:37:09;;;;;;;1999.90;999.90;;;;;;;31.03;56.18;95737.97;5049973;28;20204;-65
2021/06/25 07:39:36;;;;;;;1999.90;999.90;;;;;;;31.35;54.92;95737.94;5052662;28;20255;-65
2021/06/25 07:42:03;;;;;;;1999.90;999.90;;;;;;;31.39;55.48;95732.47;5052572;28;20189;-65
2021/06/25 07:44:30;;;;;;;1999.90;999.90;;;;;;;31.36;54.17;95726.03;5052894;28;20197;-65
2021/06/25 07:46:57;;;;;;;1999.90;999.90;;;;;;;31.55;54.68;95727.81;5052694;28;20263;-65
2021/06/25 07:49:24;;;;;;;1999.90;999.90;;;;;;;31.84;54.11;95719.78;5052612;28;20232;-65
2021/06/25 07:51:51;;;;;;;1999.90;999.90;;;;;;;31.95;54.13;95717.56;5052681;28;20197;-65
2021/06/25 07:54:20;;;;;;;1999.90;999.90;;;;;;;31.80;54.84;95721.81;5052639;28;20205;-65
2021/06/25 07:56:47;;;;;;;1999.90;999.90;;;;;;;32.03;55.71;95728.88;5052781;28;20680;-65
2021/06/25 07:59:14;;;;;;;1999.90;999.90;;;;;;;32.05;55.04;95718.44;5052629;28;20200;-65
2021/06/25 08:01:41;;;;;;;1999.90;999.90;;;;;;;32.29;54.32;95724.31;5052563;28;20204;-65
2021/06/25 08:04:08;;;;;;;1999.90;999.90;;;;;;;32.55;52.71;95722.41;5052065;28;20216;-65
2021/06/25 08:06:35;;;;;;;1999.90;999.90;;;;;;;32.52;52.14;95725.97;5052101;28;20692;-65
2021/06/25 08:09:04;;;;;;;1999.90;999.90;;;;;;;32.73;49.82;95720.69;5052218;28;20229;-65
2021/06/25 08:11:33;;;;;;;1999.90;999.90;;;;;;;33.00;49.40;95722.19;5051928;28;20292;-65
2021/06/25 08:14:00;;;;;;;1999.90;999.90;;;;;;;33.16;47.43;95720.16;5051904;28;20205;-65
2021/06/25 08:16:27;;;;;;;1999.90;999.90;;;;;;;32.97;46.23;95713.03;5051939;28;20205;-66
2021/06/25 08:18:57;;;;;;;1999.90;999.90;;;;;;;32.84;46.20;95710.34;5051892;28;20209;-65
2021/06/25 08:21:25;;;;;;;1999.90;999.90;;;;;;;32.83;46.38;95713.47;5052180;28;20581;-65
2021/06/25 08:23:52;;;;;;;1999.90;999.90;;;;;;;32.85;44.55;95713.81;5052081;28;20595;-65
2021/06/25 08:26:20;;;;;;;1999.90;999.90;;;;;;;33.00;45.44;95717.56;5051852;28;20193;-65
2021/06/25 08:28:49;;;;;;;1999.90;999.90;;;;;;;33.00;45.70;95720.25;5051609;28;20290;-65
2021/06/25 08:31:17;;;;;;;1999.90;999.90;;;;;;;33.23;45.39;95709.13;5051712;28;20205;-65
2021/06/25 08:33:44;;;;;;;1999.90;999.90;;;;;;;33.56;46.93;95722.28;5051613;28;20205;-65
2021/06/25 08:36:11;;;;;;;1999.90;999.90;;;;;;;33.46;43.49;95712.63;5051507;28;20209;-64
2021/06/25 08:38:38;;;;;;;1999.90;999.90;;;;;;;33.68;45.51;95702.63;5051930;28;20201;-65
2021/06/25 08:41:06;;;;;;;1999.90;999.90;;;;;;;33.96;44.60;95709.72;5046362;28;20267;-65
2021/06/25 08:43:33;;;;;;;1999.90;999.90;;;;;;;34.03;40.75;95711.38;5031821;28;20220;-65
2021/06/25 08:46:02;;;;;;;1999.90;999.90;;;;;;;34.11;41.89;95716.09;5031439;28;20205;-65
2021/06/25 08:48:30;;;;;;;1999.90;999.90;;;;;;;34.43;41.69;95700.66;5030852;28;20222;-65
2021/06/25 08:50:58;;;;;;;1999.90;999.90;;;;;;;33.95;46.17;95702.06;5031624;28;20236;-65
2021/06/25 08:53:25;;;;;;;1999.90;999.90;;;;;;;34.31;43.13;95696.88;5031336;28;20733;-65
2021/06/25 08:55:53;;;;;;;1999.90;999.90;;;;;;;34.53;43.25;95697.56;5031279;28;20213;-66
2021/06/25 08:58:21;;;;;;;1999.90;999.90;;;;;;;34.72;44.18;95700.38;5031300;28;20198;-66
2021/06/25 09:00:49;;;;;;;1999.90;999.90;;;;;;;34.65;43.57;95692.50;5041522;28;20210;-66
2021/06/25 09:03:25;;;;;;;1999.90;999.90;;;;;;;34.46;43.91;95695.16;5051415;28;20623;-66
2021/06/25 09:05:53;;;;;;;1999.90;999.90;;;;;;;34.51;44.63;95699.97;5051332;28;20189;-66
2021/06/25 09:08:28;;;;;;;1999.90;999.90;;;;;;;34.36;45.33;95688.22;5050955;28;20228;-66
2021/06/25 09:10:57;;;;;;;1999.90;999.90;;;;;;;34.55;44.65;95705.22;5050956;28;20668;-65
2021/06/25 09:13:35;;;;;;;1999.90;999.90;;;;;;;34.80;42.36;95696.94;5051252;28;20205;-65
2021/06/25 09:16:03;;;;;;;1999.90;999.90;;;;;;;35.02;42.74;95690.69;5051189;28;20201;-66
2021/06/25 09:18:31;;;;;;;1999.90;999.90;;;;;;;34.95;41.92;95684.38;5050943;28;20197;-66
2021/06/25 09:20:58;;;;;;;1999.90;999.90;;;;;;;35.25;41.65;95696.28;5050827;28;20209;-65
2021/06/25 09:23:34;;;;;;;1999.90;999.90;;;;;;;35.26;42.05;95688.94;5051131;28;20201;-65
2021/06/25 09:26:07;;;;;;;1999.90;999.90;;;;;;;35.37;40.48;95686.53;5051094;28;20654;-65
2021/06/25 09:28:36;;;;;;;1999.90;999.90;;;;;;;35.14;41.90;95687.09;5050920;28;20636;-66
2021/06/25 09:31:12;;;;;;;1999.90;999.90;;;;;;;35.33;41.39;95680.50;5050820;28;20585;-65
2021/06/25 09:33:44;;;;;;;1999.90;999.90;;;;;;;35.41;40.42;95681.75;5050642;28;20638;-65
2021/06/25 09:36:21;;;;;;;1999.90;999.90;;;;;;;35.44;40.54;95680.06;5050758;28;20270;-65
2021/06/25 09:38:57;;;;;;;1999.90;999.90;;;;;;;35.75;40.45;95672.56;5050505;28;20193;-66
2021/06/25 09:41:24;;;;;;;1999.90;999.90;;;;;;;35.81;39.74;95676.16;5050127;28;20232;-66
2021/06/25 09:43:57;;;;;;;1999.90;999.90;;;;;;;35.94;39.65;95673.28;5050634;28;20201;-66
2021/06/25 09:46:28;;;;;;;1999.90;999.90;;;;;;;35.93;39.25;95663.66;5050426;28;20201;-66
2021/06/25 09:48:58;;;;;;;1999.90;999.90;;;;;;;36.26;37.36;95664.50;5050076;28;20231;-65
2021/06/25 09:51:26;;;;;;;1999.90;999.90;;;;;;;36.03;37.07;95674.00;5050083;28;20236;-66
2021/06/25 09:54:11;;;;;;;1999.90;999.90;;;;;;;35.78;36.80;95666.25;5050230;28;20201;-65
2021/06/25 09:56:43;;;;;;;1999.90;999.90;;;;;;;35.69;36.16;95666.25;5050475;28;20225;-65
2021/06/25 10:02:29;;;;;;;1999.90;999.90;;;;;;;36.02;36.35;95663.63;5049616;28;20259;-66
2021/06/25 10:05:02;;;;;;;1999.90;999.90;;;;;;;36.20;36.54;95648.13;5050261;28;20258;-66
2021/06/25 10:07:30;;;;;;;1999.90;999.90;;;;;;;36.17;35.60;95654.44;5050236;28;20197;-65
2021/06/25 10:10:01;;;;;;;1999.90;999.90;;;;;;;36.06;34.86;95650.69;5049668;28;20216;-66
2021/06/25 10:12:28;;;;;;;1999.90;999.90;;;;;;;36.40;33.88;95647.59;5050155;28;20181;-66
2021/06/25 10:14:56;;;;;;;1999.90;999.90;;;;;;;36.42;34.13;95634.31;5049966;28;20200;-66
2021/06/25 10:17:27;;;;;;;1999.90;999.90;;;;;;;36.34;33.37;95640.53;5049687;28;20209;-65
2021/06/25 10:19:59;;;;;;;1999.90;999.90;;;;;;;36.59;32.60;95640.88;5049589;28;20189;-66
2021/06/25 10:22:29;;;;;;;1999.90;999.90;;;;;;;36.72;29.46;95643.38;5050024;28;20189;-65
2021/06/25 10:24:56;;;;;;;1999.90;999.90;;;;;;;36.79;30.85;95631.44;5049493;28;20267;-66
2021/06/25 10:27:24;;;;;;;1999.90;999.90;;;;;;;37.05;30.24;95627.06;5049768;28;20576;-66
2021/06/25 10:29:52;;;;;;;1999.90;999.90;;;;;;;37.12;31.46;95634.84;5049577;28;20335;-65
2021/06/25 10:32:19;;;;;;;1999.90;999.90;;;;;;;37.10;31.42;95622.97;5049850;28;20274;-66
2021/06/25 10:34:47;;;;;;;1999.90;999.90;;;;;;;37.02;32.01;95623.28;5049479;28;20218;-65
2021/06/25 10:37:20;;;;;;;1999.90;999.90;;;;;;;37.00;30.71;95627.69;5049760;28;20201;-66
2021/06/25 10:39:49;;;;;;;1999.90;999.90;;;;;;;37.15;29.59;95625.06;5049430;28;20225;-66
2021/06/25 10:42:17;;;;;;;1999.90;999.90;;;;;;;37.43;29.77;95623.59;5049366;28;20215;-66
2021/06/25 10:44:45;;;;;;;1999.90;999.90;;;;;;;37.48;29.50;95618.28;5049600;28;20193;-66
2021/06/25 10:47:24;;;;;;;1999.90;999.90;;;;;;;37.71;29.29;95615.97;5033493;28;20200;-66
2021/06/25 10:50:19;;;;;;;1999.90;999.90;;;;;;;37.64;29.81;95614.38;5029236;28;20217;-66
2021/06/25 10:53:15;;;;;;;1999.90;999.90;;;;;;;37.87;27.93;95610.06;5029763;28;20267;-66
2021/06/25 10:55:58;;;;;;;1999.90;999.90;;;;;;;37.82;28.16;95610.72;5029375;28;20340;-66
2021/06/25 10:58:27;;;;;;;1999.90;999.90;;;;;;;37.99;28.67;95597.41;5029286;28;20181;-66
2021/06/25 11:00:57;;;;;;;1999.90;999.90;;;;;;;37.77;27.47;95603.97;5039898;28;20197;-66
2021/06/25 11:03:37;;;;;;;1999.90;999.90;;;;;;;37.86;27.70;95611.28;5049286;28;20632;-66
2021/06/25 11:06:05;;;;;;;1999.90;999.90;;;;;;;37.90;28.14;95601.75;5049292;28;20191;-66
2021/06/25 11:08:32;;;;;;;1999.90;999.90;;;;;;;37.69;27.27;95611.00;5048909;28;20742;-66
2021/06/25 11:11:01;;;;;;;1999.90;999.90;;;;;;;37.63;27.67;95601.28;5049098;28;20287;-66
2021/06/25 11:13:29;;;;;;;1999.90;999.90;;;;;;;37.94;27.69;95601.53;5049206;28;20196;-66
2021/06/25 11:15:59;;;;;;;1999.90;999.90;;;;;;;37.84;26.75;95608.28;5049256;28;20258;-66